createdAt,value
2017-07-19T00:01:20.623Z,66.85
2017-07-19T00:03:48.022Z,66.26
2017-07-19T00:06:15.410Z,66.42
2017-07-19T00:08:42.880Z,66.46
2017-07-19T00:11:10.264Z,66.25
2017-07-19T00:13:37.659Z,66.27
2017-07-19T00:16:05.059Z,66.41
2017-07-19T00:18:32.454Z,66.25
2017-07-19T00:20:59.854Z,66.99
2017-07-19T00:23:27.258Z,67.17
2017-07-19T00:25:54.800Z,67.56
2017-07-19T00:28:22.203Z,67.51
2017-07-19T00:30:49.767Z,67.43
2017-07-19T00:33:17.188Z,67.34
2017-07-19T00:35:44.575Z,67.16
2017-07-19T00:38:11.967Z,67.05
2017-07-19T00:40:39.368Z,66.99
2017-07-19T00:43:06.772Z,66.94
2017-07-19T00:45:34.169Z,67.11
2017-07-19T00:48:01.564Z,67.54
2017-07-19T00:50:28.952Z,67.88
2017-07-19T00:52:56.370Z,67.92
2017-07-19T00:55:23.735Z,67.81
2017-07-19T00:57:51.131Z,68.10
2017-07-19T01:00:18.523Z,68.39
2017-07-19T01:02:45.914Z,68.01
2017-07-19T01:05:13.330Z,68.33
2017-07-19T01:07:40.723Z,68.30
2017-07-19T01:10:08.111Z,68.75
2017-07-19T01:12:35.494Z,69.05
2017-07-19T01:15:03.110Z,68.85
2017-07-19T01:17:30.497Z,69.04
2017-07-19T01:19:57.891Z,68.92
2017-07-19T01:22:25.277Z,68.61
2017-07-19T01:24:52.675Z,68.92
2017-07-19T01:27:20.058Z,68.93
2017-07-19T01:29:47.491Z,69.32
2017-07-19T01:32:14.886Z,68.83
2017-07-19T01:34:42.523Z,68.65
2017-07-19T01:37:09.914Z,68.07
2017-07-19T01:39:37.323Z,68.10
2017-07-19T01:42:04.703Z,68.58
2017-07-19T01:44:32.095Z,68.67
2017-07-19T01:46:59.485Z,68.80
2017-07-19T01:49:26.871Z,68.61
2017-07-19T01:51:54.260Z,68.53
2017-07-19T01:54:21.654Z,68.67
2017-07-19T01:56:49.049Z,69.50
2017-07-19T01:59:16.431Z,69.12
2017-07-19T02:01:43.811Z,69.61
2017-07-19T02:04:11.206Z,69.75
2017-07-19T02:06:38.615Z,69.76
2017-07-19T02:09:05.994Z,70.42
2017-07-19T02:11:33.383Z,69.88
2017-07-19T02:14:00.775Z,70.49
2017-07-19T02:16:28.167Z,71.10
2017-07-19T02:18:55.562Z,71.16
2017-07-19T02:21:22.948Z,71.24
2017-07-19T02:23:50.335Z,71.69
2017-07-19T02:26:17.722Z,71.83
2017-07-19T02:28:45.111Z,71.52
2017-07-19T02:31:12.498Z,71.00
2017-07-19T02:33:39.882Z,71.04
2017-07-19T02:36:07.280Z,71.54
2017-07-19T02:38:34.662Z,71.18
2017-07-19T02:41:02.271Z,71.68
2017-07-19T02:43:29.672Z,71.34
2017-07-19T02:45:57.052Z,71.99
2017-07-19T02:48:24.435Z,71.55
2017-07-19T02:50:51.833Z,71.53
2017-07-19T02:53:19.220Z,71.65
2017-07-19T02:55:46.611Z,71.62
2017-07-19T02:58:13.994Z,71.43
2017-07-19T03:00:41.389Z,71.46
2017-07-19T03:03:08.779Z,71.90
2017-07-19T03:05:36.162Z,71.40
2017-07-19T03:08:03.547Z,72.02
2017-07-19T03:10:30.941Z,71.98
2017-07-19T03:12:58.326Z,72.12
2017-07-19T03:15:25.719Z,71.67
2017-07-19T03:17:53.339Z,71.65
2017-07-19T03:20:20.737Z,71.61
2017-07-19T03:22:49.842Z,71.78
2017-07-19T03:25:17.266Z,71.39
2017-07-19T03:27:44.659Z,71.38
2017-07-19T03:30:12.038Z,71.51
2017-07-19T03:32:39.437Z,71.37
2017-07-19T03:35:06.824Z,71.59
2017-07-19T03:37:34.214Z,72.09
2017-07-19T03:40:01.605Z,72.33
2017-07-19T03:42:28.996Z,71.98
2017-07-19T03:44:56.378Z,71.73
2017-07-19T03:47:23.771Z,71.98
2017-07-19T03:49:51.166Z,71.83
2017-07-19T03:52:18.564Z,72.04
2017-07-19T03:54:45.967Z,72.30
2017-07-19T03:57:13.351Z,72.78
2017-07-19T03:59:40.743Z,72.07
2017-07-19T04:02:08.140Z,72.14
2017-07-19T04:04:35.517Z,72.14
2017-07-19T04:07:02.905Z,72.37
2017-07-19T04:09:30.291Z,72.96
2017-07-19T04:11:57.683Z,72.58
2017-07-19T04:14:25.075Z,72.50
2017-07-19T04:16:52.490Z,72.41
2017-07-19T04:19:19.884Z,72.22
2017-07-19T04:21:47.618Z,71.76
2017-07-19T04:24:15.007Z,71.77
2017-07-19T04:26:42.694Z,71.91
2017-07-19T04:29:10.087Z,71.89
2017-07-19T04:31:37.487Z,71.80
2017-07-19T04:34:04.874Z,71.43
2017-07-19T04:36:32.277Z,71.51
2017-07-19T04:38:59.669Z,71.77
2017-07-19T04:41:27.087Z,71.37
2017-07-19T04:43:54.500Z,71.51
2017-07-19T04:46:21.887Z,71.46
2017-07-19T04:48:49.323Z,71.14
2017-07-19T04:51:16.706Z,71.02
2017-07-19T04:53:44.103Z,71.04
2017-07-19T04:56:11.513Z,71.19
2017-07-19T04:58:38.889Z,70.94
2017-07-19T05:01:06.319Z,70.66
2017-07-19T05:03:33.740Z,70.64
2017-07-19T05:06:01.133Z,71.05
2017-07-19T05:08:28.524Z,70.49
2017-07-19T05:10:55.907Z,70.54
2017-07-19T05:13:23.311Z,70.41
2017-07-19T05:15:50.694Z,70.03
2017-07-19T05:18:18.094Z,70.01
2017-07-19T05:20:45.539Z,70.35
2017-07-19T05:23:12.926Z,70.05
2017-07-19T05:25:40.311Z,69.80
2017-07-19T05:28:07.718Z,69.38
2017-07-19T05:30:35.116Z,69.34
2017-07-19T05:33:02.509Z,69.11
2017-07-19T05:35:29.890Z,68.85
2017-07-19T05:37:57.287Z,69.42
2017-07-19T05:40:24.683Z,69.21
2017-07-19T05:42:52.067Z,68.64
2017-07-19T05:45:19.456Z,68.39
2017-07-19T05:47:46.850Z,68.08
2017-07-19T05:50:14.235Z,68.05
2017-07-19T05:52:41.623Z,67.61
2017-07-19T05:55:09.015Z,66.88
2017-07-19T05:57:36.690Z,66.28
2017-07-19T06:00:04.083Z,65.81
2017-07-19T06:02:31.472Z,65.34
2017-07-19T06:04:58.863Z,65.30
2017-07-19T06:07:26.250Z,65.36
2017-07-19T06:09:53.646Z,64.96
2017-07-19T06:12:21.026Z,65.09
2017-07-19T06:14:48.415Z,64.61
2017-07-19T06:17:15.809Z,64.73
2017-07-19T06:19:43.218Z,64.34
2017-07-19T06:22:10.603Z,64.11
2017-07-19T06:24:38.022Z,63.97
2017-07-19T06:27:05.404Z,63.89
2017-07-19T06:29:32.799Z,63.62
2017-07-19T06:32:00.185Z,63.33
2017-07-19T06:34:27.572Z,63.15
2017-07-19T06:36:54.972Z,62.89
2017-07-19T06:39:22.362Z,62.93
2017-07-19T06:41:49.747Z,62.63
2017-07-19T06:44:17.156Z,62.68
2017-07-19T06:46:44.551Z,62.11
2017-07-19T06:49:11.955Z,62.50
2017-07-19T06:51:39.347Z,61.82
2017-07-19T06:54:06.734Z,61.87
2017-07-19T06:56:34.118Z,61.46
2017-07-19T06:59:01.510Z,60.70
2017-07-19T07:01:28.896Z,60.74
2017-07-19T07:03:56.301Z,60.67
2017-07-19T07:06:23.686Z,60.61
2017-07-19T07:08:51.088Z,60.65
2017-07-19T07:11:18.475Z,60.16
2017-07-19T07:13:45.862Z,59.30
2017-07-19T07:16:13.280Z,59.62
2017-07-19T07:18:40.676Z,59.51
2017-07-19T07:21:08.066Z,59.11
2017-07-19T07:23:35.448Z,58.76
2017-07-19T07:26:02.843Z,58.80
2017-07-19T07:28:30.238Z,58.76
2017-07-19T07:30:57.626Z,58.59
2017-07-19T07:33:25.038Z,58.57
2017-07-19T07:35:52.471Z,57.85
2017-07-19T07:38:19.847Z,58.03
2017-07-19T07:40:47.818Z,57.94
2017-07-19T07:43:15.243Z,57.99
2017-07-19T07:45:42.638Z,57.56
2017-07-19T07:48:10.024Z,57.55
2017-07-19T07:50:37.415Z,57.81
2017-07-19T07:53:04.802Z,57.19
2017-07-19T07:55:32.211Z,56.71
2017-07-19T07:57:59.586Z,56.93
2017-07-19T08:00:26.979Z,55.90
2017-07-19T08:02:54.367Z,56.12
2017-07-19T08:05:21.761Z,55.85
2017-07-19T08:07:49.137Z,55.57
2017-07-19T08:10:16.534Z,55.43
2017-07-19T08:12:43.922Z,55.13
2017-07-19T08:15:11.315Z,54.88
2017-07-19T08:17:38.702Z,54.97
2017-07-19T08:20:06.101Z,55.04
2017-07-19T08:22:33.478Z,54.97
2017-07-19T08:25:00.895Z,55.11
2017-07-19T08:27:28.300Z,54.57
2017-07-19T08:29:55.698Z,54.50
2017-07-19T08:32:23.087Z,54.37
2017-07-19T08:34:50.475Z,53.74
2017-07-19T08:37:17.862Z,54.05
2017-07-19T08:39:45.247Z,53.69
2017-07-19T08:42:12.639Z,53.44
2017-07-19T08:44:40.023Z,54.25
2017-07-19T08:47:07.414Z,54.00
2017-07-19T08:49:34.802Z,52.68
2017-07-19T08:52:02.194Z,52.91
2017-07-19T08:54:29.870Z,52.09
2017-07-19T08:56:57.263Z,52.17
2017-07-19T08:59:24.658Z,52.02
2017-07-19T09:01:52.050Z,51.93
2017-07-19T09:04:19.437Z,52.26
2017-07-19T09:06:46.827Z,51.51
2017-07-19T09:09:14.211Z,51.32
2017-07-19T09:11:41.608Z,50.67
2017-07-19T09:14:08.996Z,51.49
2017-07-19T09:16:36.382Z,50.80
2017-07-19T09:19:03.770Z,51.12
2017-07-19T09:21:31.174Z,50.27
2017-07-19T09:23:58.558Z,50.48
2017-07-19T09:26:25.954Z,50.34
2017-07-19T09:28:53.343Z,50.24
2017-07-19T09:31:20.738Z,50.62
2017-07-19T09:33:48.127Z,50.80
2017-07-19T09:36:15.527Z,49.79
2017-07-19T09:38:42.918Z,49.87
2017-07-19T09:41:10.311Z,49.25
2017-07-19T09:43:37.710Z,49.00
2017-07-19T09:46:05.102Z,48.39
2017-07-19T09:48:32.498Z,48.54
2017-07-19T09:50:59.890Z,47.95
2017-07-19T09:53:27.282Z,48.17
2017-07-19T09:55:54.685Z,47.73
2017-07-19T09:58:22.310Z,47.69
2017-07-19T10:00:49.699Z,45.28
2017-07-19T10:03:17.091Z,46.55
2017-07-19T10:05:44.479Z,45.88
2017-07-19T10:08:11.878Z,46.61
2017-07-19T10:10:39.268Z,45.82
2017-07-19T10:13:06.654Z,44.59
2017-07-19T10:15:34.043Z,44.03
2017-07-19T10:18:01.439Z,44.49
2017-07-19T10:20:28.849Z,44.88
2017-07-19T10:22:56.243Z,44.73
2017-07-19T10:25:23.627Z,45.05
2017-07-19T10:27:51.030Z,44.60
2017-07-19T10:30:18.511Z,43.54
2017-07-19T10:32:45.909Z,42.91
2017-07-19T10:35:13.331Z,43.79
2017-07-19T10:37:40.722Z,43.91
2017-07-19T10:40:08.111Z,44.84
2017-07-19T10:42:35.507Z,44.17
2017-07-19T10:45:02.899Z,43.61
2017-07-19T10:47:30.295Z,43.70
2017-07-19T10:49:57.694Z,44.73
2017-07-19T10:52:25.097Z,43.92
2017-07-19T10:54:52.487Z,43.44
2017-07-19T10:57:19.876Z,43.81
2017-07-19T10:59:47.283Z,43.71
2017-07-19T11:02:14.675Z,43.90
2017-07-19T11:04:42.305Z,44.01
2017-07-19T11:07:09.695Z,44.72
2017-07-19T11:09:37.087Z,42.49
2017-07-19T11:12:04.466Z,43.69
2017-07-19T11:14:31.863Z,43.67
2017-07-19T11:16:59.251Z,44.26
2017-07-19T11:19:26.642Z,42.75
2017-07-19T11:21:54.027Z,42.92
2017-07-19T11:24:21.440Z,42.52
2017-07-19T11:26:48.814Z,43.41
2017-07-19T11:29:16.208Z,43.20
2017-07-19T11:31:43.595Z,43.48
2017-07-19T11:34:10.987Z,43.66
2017-07-19T11:36:38.372Z,42.77
2017-07-19T11:39:05.759Z,43.27
2017-07-19T11:41:33.151Z,42.65
2017-07-19T11:44:00.548Z,42.73
2017-07-19T11:46:27.928Z,42.13
2017-07-19T11:48:55.322Z,41.86
2017-07-19T11:51:22.710Z,42.18
2017-07-19T11:53:50.104Z,41.95
2017-07-19T11:56:17.487Z,42.32
2017-07-19T11:58:44.882Z,42.52
2017-07-19T12:01:12.272Z,42.54
2017-07-19T12:03:39.660Z,41.41
2017-07-19T12:06:07.043Z,42.14
2017-07-19T12:08:34.446Z,43.24
2017-07-19T12:11:01.834Z,43.25
2017-07-19T12:13:29.223Z,42.99
2017-07-19T12:15:56.612Z,43.41
2017-07-19T12:18:24.013Z,42.86
2017-07-19T12:20:51.421Z,42.99
2017-07-19T12:23:18.798Z,42.15
2017-07-19T12:25:46.186Z,42.99
2017-07-19T12:28:13.574Z,42.64
2017-07-19T12:30:40.986Z,42.12
2017-07-19T12:33:08.389Z,41.99
2017-07-19T12:35:35.782Z,42.06
2017-07-19T12:38:03.200Z,42.00
2017-07-19T12:40:30.598Z,42.41
2017-07-19T12:42:58.007Z,42.37
2017-07-19T12:45:25.412Z,43.46
2017-07-19T12:47:52.812Z,42.18
2017-07-19T12:50:20.211Z,42.14
2017-07-19T12:52:47.605Z,41.83
2017-07-19T12:55:15.001Z,42.38
2017-07-19T12:57:42.385Z,42.34
2017-07-19T13:00:09.786Z,41.40
2017-07-19T13:02:37.411Z,41.89
2017-07-19T13:05:04.813Z,41.89
2017-07-19T13:07:32.199Z,42.17
2017-07-19T13:09:59.608Z,42.12
2017-07-19T13:12:26.996Z,42.05
2017-07-19T13:14:54.386Z,41.82
2017-07-19T13:17:21.784Z,41.92
2017-07-19T13:19:49.170Z,42.04
2017-07-19T13:22:17.338Z,41.89
2017-07-19T13:24:44.780Z,42.14
2017-07-19T13:27:12.161Z,41.54
2017-07-19T13:29:39.550Z,42.08
2017-07-19T13:32:06.942Z,41.55
2017-07-19T13:34:34.330Z,41.52
2017-07-19T13:37:01.719Z,41.66
2017-07-19T13:39:29.109Z,41.96
2017-07-19T13:41:56.503Z,41.58
2017-07-19T13:44:23.882Z,41.93
2017-07-19T13:46:51.274Z,41.58
2017-07-19T13:49:18.658Z,41.81
2017-07-19T13:51:46.048Z,41.34
2017-07-19T13:54:13.447Z,42.27
2017-07-19T13:56:40.843Z,41.39
2017-07-19T13:59:08.231Z,41.41
2017-07-19T14:01:37.939Z,41.80
2017-07-19T14:04:05.378Z,41.65
2017-07-19T14:06:32.791Z,41.79
2017-07-19T14:09:00.167Z,41.68
2017-07-19T14:11:27.575Z,41.58
2017-07-19T14:13:54.964Z,41.71
2017-07-19T14:16:22.363Z,42.84
2017-07-19T14:18:49.755Z,42.79
2017-07-19T14:21:17.151Z,42.79
2017-07-19T14:23:44.555Z,42.39
2017-07-19T14:26:11.946Z,42.63
2017-07-19T14:28:39.334Z,42.01
2017-07-19T14:31:06.955Z,42.06
2017-07-19T14:33:34.351Z,42.15
2017-07-19T14:36:01.744Z,41.68
2017-07-19T14:38:29.127Z,42.09
2017-07-19T14:40:56.530Z,42.43
2017-07-19T14:43:23.923Z,42.24
2017-07-19T14:45:51.303Z,41.91
2017-07-19T14:48:18.710Z,42.02
2017-07-19T14:50:46.099Z,42.27
2017-07-19T14:53:13.511Z,42.60
2017-07-19T14:55:40.911Z,42.62
2017-07-19T14:58:08.307Z,42.08
2017-07-19T15:00:35.702Z,41.79
2017-07-19T15:03:03.102Z,41.99
2017-07-19T15:05:30.727Z,42.49
2017-07-19T15:07:58.158Z,42.22
2017-07-19T15:10:25.551Z,42.52
2017-07-19T15:12:52.959Z,41.97
2017-07-19T15:15:20.355Z,42.27
2017-07-19T15:17:47.737Z,42.20
2017-07-19T15:20:15.439Z,42.35
2017-07-19T15:22:42.826Z,41.79
2017-07-19T15:25:10.214Z,41.99
2017-07-19T15:27:37.616Z,41.97
2017-07-19T15:30:05.022Z,42.30
2017-07-19T15:32:32.434Z,41.82
2017-07-19T15:34:59.826Z,41.52
2017-07-19T15:37:27.224Z,41.96
2017-07-19T15:39:54.610Z,42.44
2017-07-19T15:42:21.997Z,42.14
2017-07-19T15:44:49.402Z,42.37
2017-07-19T15:47:16.802Z,41.94
2017-07-19T15:49:44.207Z,42.08
2017-07-19T15:52:11.815Z,42.53
2017-07-19T15:54:39.220Z,42.38
2017-07-19T15:57:06.698Z,42.21
2017-07-19T15:59:34.076Z,42.24
2017-07-19T16:02:01.459Z,42.01
2017-07-19T16:04:29.507Z,42.45
2017-07-19T16:06:56.897Z,42.87
2017-07-19T16:09:24.290Z,42.83
2017-07-19T16:11:51.670Z,43.01
2017-07-19T16:14:19.073Z,43.23
2017-07-19T16:16:46.455Z,43.24
2017-07-19T16:19:13.848Z,42.69
2017-07-19T16:21:41.242Z,43.21
2017-07-19T16:24:08.643Z,43.12
2017-07-19T16:26:36.035Z,43.03
2017-07-19T16:29:03.423Z,42.88
2017-07-19T16:31:30.815Z,42.89
2017-07-19T16:33:58.215Z,43.54
2017-07-19T16:36:25.612Z,43.07
2017-07-19T16:38:53.772Z,42.94
2017-07-19T16:41:21.151Z,42.63
2017-07-19T16:43:48.616Z,43.19
2017-07-19T16:46:16.006Z,43.15
2017-07-19T16:48:43.407Z,43.23
2017-07-19T16:51:10.800Z,43.31
2017-07-19T16:53:38.186Z,43.31
2017-07-19T16:56:05.580Z,43.39
2017-07-19T16:58:32.977Z,43.54
2017-07-19T17:01:00.362Z,43.96
2017-07-19T17:03:27.754Z,44.08
2017-07-19T17:05:55.145Z,43.73
2017-07-19T17:08:22.536Z,43.64
2017-07-19T17:10:49.931Z,43.97
2017-07-19T17:13:17.327Z,44.24
2017-07-19T17:15:44.713Z,44.03
2017-07-19T17:18:12.102Z,44.05
2017-07-19T17:20:39.499Z,44.04
2017-07-19T17:23:06.891Z,44.71
2017-07-19T17:25:34.327Z,44.85
2017-07-19T17:28:01.715Z,44.71
2017-07-19T17:30:30.185Z,44.93
2017-07-19T17:32:57.563Z,45.08
2017-07-19T17:35:24.969Z,45.05
2017-07-19T17:37:52.358Z,45.04
2017-07-19T17:40:19.750Z,44.86
2017-07-19T17:42:47.153Z,45.35
2017-07-19T17:45:14.559Z,45.49
2017-07-19T17:47:41.962Z,45.38
2017-07-19T17:50:09.788Z,45.70
2017-07-19T17:52:37.181Z,45.86
2017-07-19T17:55:04.577Z,45.99
2017-07-19T17:57:31.960Z,45.82
2017-07-19T17:59:59.363Z,45.80
2017-07-19T18:02:26.754Z,45.96
2017-07-19T18:04:54.146Z,46.21
2017-07-19T18:07:21.547Z,46.59
2017-07-19T18:09:48.952Z,47.02
2017-07-19T18:12:16.334Z,46.78
2017-07-19T18:14:43.731Z,46.94
2017-07-19T18:17:11.127Z,47.23
2017-07-19T18:19:38.547Z,45.99
2017-07-19T18:24:57.435Z,46.35
2017-07-19T18:27:25.074Z,45.53
2017-07-19T18:29:52.497Z,45.58
2017-07-19T18:32:19.860Z,47.29
2017-07-19T18:34:47.259Z,49.37
2017-07-19T18:37:14.897Z,51.87
2017-07-19T18:39:42.310Z,53.54
2017-07-19T18:42:09.699Z,54.41
2017-07-19T18:44:37.135Z,55.75
2017-07-19T18:47:04.519Z,57.31
2017-07-19T18:49:31.907Z,57.32
2017-07-19T18:51:59.306Z,57.87
2017-07-19T18:54:26.724Z,57.50
2017-07-19T18:56:54.115Z,58.06
2017-07-19T18:59:21.515Z,57.29
2017-07-19T19:01:48.920Z,57.91
2017-07-19T19:04:16.323Z,57.95
2017-07-19T19:06:44.686Z,57.77
2017-07-19T19:09:12.092Z,57.76
2017-07-19T19:11:39.490Z,58.15
2017-07-19T19:14:07.095Z,57.78
2017-07-19T19:16:34.495Z,57.80
2017-07-19T19:19:01.892Z,57.72
2017-07-19T19:21:29.318Z,57.16
2017-07-19T19:23:56.704Z,57.43
2017-07-19T19:26:24.098Z,57.31
2017-07-19T19:28:51.495Z,56.41
2017-07-19T19:31:18.895Z,55.89
2017-07-19T19:33:46.293Z,58.63
2017-07-19T19:36:13.690Z,58.66
2017-07-19T19:38:41.075Z,59.54
2017-07-19T19:41:08.496Z,62.71
2017-07-19T19:43:36.108Z,64.22
2017-07-19T19:46:03.503Z,65.93
2017-07-19T19:48:30.900Z,66.33
2017-07-19T19:50:58.307Z,66.33
2017-07-19T19:53:25.701Z,67.35
2017-07-19T19:55:53.095Z,67.55
2017-07-19T19:58:20.491Z,67.32
2017-07-19T20:00:47.886Z,67.63
2017-07-19T20:03:15.290Z,69.09
2017-07-19T20:05:42.676Z,68.96
2017-07-19T20:08:10.074Z,69.04
2017-07-19T20:10:37.495Z,69.32
2017-07-19T20:13:04.891Z,69.51
2017-07-19T20:15:32.284Z,70.58
2017-07-19T20:17:59.683Z,71.51
2017-07-19T20:20:27.079Z,72.44
2017-07-19T20:22:54.478Z,70.51
2017-07-19T20:25:21.879Z,70.80
2017-07-19T20:27:49.313Z,70.66
2017-07-19T20:30:16.983Z,71.40
2017-07-19T20:32:44.646Z,70.53
2017-07-19T20:35:12.034Z,70.57
2017-07-19T20:37:39.434Z,71.16
2017-07-19T20:40:06.826Z,72.23
2017-07-19T20:42:34.222Z,72.44
2017-07-19T20:45:01.620Z,72.20
2017-07-19T20:47:29.018Z,71.56
2017-07-19T20:49:56.402Z,71.90
2017-07-19T20:52:23.798Z,70.82
2017-07-19T20:54:51.196Z,73.05
2017-07-19T20:57:18.604Z,73.39
2017-07-19T20:59:45.989Z,73.37
2017-07-19T21:02:13.390Z,74.55
2017-07-19T21:04:40.903Z,74.17
2017-07-19T21:07:08.287Z,74.66
2017-07-19T21:09:35.691Z,74.68
2017-07-19T21:12:03.094Z,75.46
2017-07-19T21:14:30.710Z,76.02
2017-07-19T21:16:58.111Z,77.18
2017-07-19T21:19:25.806Z,77.15
2017-07-19T21:21:53.199Z,76.88
2017-07-19T21:24:20.605Z,77.50
2017-07-19T21:26:48.285Z,76.76
2017-07-19T21:29:15.687Z,77.69
2017-07-19T21:31:43.084Z,77.16
2017-07-19T21:34:10.750Z,77.18
2017-07-19T21:36:38.151Z,77.56
2017-07-19T21:39:05.551Z,77.55
2017-07-19T21:41:32.950Z,77.24
2017-07-19T21:44:00.350Z,77.83
2017-07-19T21:46:27.762Z,77.30
2017-07-19T21:48:55.147Z,76.74
2017-07-19T21:51:22.535Z,76.47
2017-07-19T21:53:49.943Z,76.78
2017-07-19T21:56:17.340Z,76.03
2017-07-19T21:58:44.732Z,76.38
2017-07-19T22:01:12.139Z,77.17
2017-07-19T22:03:39.544Z,76.49
2017-07-19T22:06:06.934Z,76.96
2017-07-19T22:08:34.334Z,76.47
2017-07-19T22:11:01.727Z,76.85
2017-07-19T22:13:29.131Z,77.00
2017-07-19T22:15:56.522Z,77.05
2017-07-19T22:18:23.925Z,76.64
2017-07-19T22:20:51.318Z,76.41
2017-07-19T22:23:18.712Z,76.13
2017-07-19T22:25:46.102Z,76.87
2017-07-19T22:28:13.771Z,77.14
2017-07-19T22:30:41.158Z,77.17
2017-07-19T22:33:08.563Z,77.50
2017-07-19T22:35:35.973Z,77.32
2017-07-19T22:38:03.595Z,75.40
2017-07-19T22:40:30.994Z,76.57
2017-07-19T22:42:58.383Z,76.92
2017-07-19T22:45:25.787Z,77.44
2017-07-19T22:47:53.183Z,77.76
2017-07-19T22:50:20.590Z,76.96
2017-07-19T22:52:47.987Z,76.14
2017-07-19T22:55:15.387Z,74.66
2017-07-19T22:57:42.779Z,75.03
2017-07-19T23:00:10.179Z,73.28
2017-07-19T23:02:37.872Z,75.29
2017-07-19T23:05:05.249Z,74.57
2017-07-19T23:07:32.646Z,74.94
2017-07-19T23:10:00.039Z,74.98
2017-07-19T23:12:27.434Z,75.95
2017-07-19T23:14:54.845Z,76.50
2017-07-19T23:17:22.227Z,75.64
2017-07-19T23:19:49.634Z,76.29
2017-07-19T23:22:17.027Z,76.20
2017-07-19T23:24:44.430Z,75.80
2017-07-19T23:27:11.823Z,73.97
2017-07-19T23:29:39.227Z,74.55
2017-07-19T23:32:06.625Z,75.55
2017-07-19T23:34:34.031Z,75.29
2017-07-19T23:37:01.444Z,74.51
2017-07-19T23:39:28.888Z,75.07
2017-07-19T23:41:56.279Z,75.84
2017-07-19T23:44:23.693Z,76.19
2017-07-19T23:46:51.095Z,77.20
2017-07-19T23:49:18.495Z,77.36
2017-07-19T23:51:45.898Z,76.63
2017-07-19T23:54:13.299Z,77.81
2017-07-19T23:56:40.697Z,77.77
2017-07-19T23:59:08.088Z,77.41
